Time;durP1;ratioP1;P1;durP2;ratioP2;P2;SDS_P1;SDS_P2;PMS_P1;PMS_P2;Temp;Humidity;BMP_temperature;BMP_pressure;BME280_temperature;BME280_humidity;BME280_pressure;Samples;Min_cycle;Max_cycle;Signal;HPM_P1;HPM_P2
2023/05/06 00:00:53;;;;;;;;;3.00;3.00;;;;;18.97;61.60;101060.13;2063041;28;46758;-63
2023/05/06 00:01:53;;;;;;;;;3.33;2.33;;;;;18.96;61.60;101059.25;2071236;28;46435;-63
2023/05/06 00:02:54;;;;;;;;;2.67;2.00;;;;;18.97;61.42;101058.31;2072114;28;45856;-64
2023/05/06 00:03:54;;;;;;;;;4.33;4.33;;;;;18.96;61.22;101053.88;2072020;28;46464;-62
2023/05/06 00:04:54;;;;;;;;;7.00;7.00;;;;;18.95;61.56;101056.66;2071749;28;46251;-64
2023/05/06 00:05:55;;;;;;;;;2.67;2.67;;;;;18.95;61.25;101059.34;2072141;28;46154;-64
2023/05/06 00:06:56;;;;;;;;;4.00;4.00;;;;;18.94;61.51;101060.28;2072064;28;45627;-62
2023/05/06 00:07:56;;;;;;;;;4.75;3.75;;;;;18.93;61.06;101059.44;2072309;28;47082;-64
2023/05/06 00:08:57;;;;;;;;;4.33;2.67;;;;;18.92;61.30;101060.34;2072938;28;46181;-64
2023/05/06 00:09:57;;;;;;;;;1.67;1.67;;;;;18.93;61.12;101055.84;2071578;28;46322;-62
2023/05/06 00:10:57;;;;;;;;;2.00;1.00;;;;;18.93;61.19;101063.91;2063378;28;45878;-63
2023/05/06 00:11:58;;;;;;;;;2.00;2.00;;;;;18.91;61.23;101057.75;2071774;28;46487;-65
2023/05/06 00:12:58;;;;;;;;;2.00;2.00;;;;;18.90;61.53;101059.56;2072326;28;46227;-63
2023/05/06 00:13:58;;;;;;;;;2.00;2.00;;;;;18.89;61.47;101062.31;2072932;28;46713;-64
2023/05/06 00:14:59;;;;;;;;;2.33;2.33;;;;;18.87;61.80;101064.22;2072839;28;46545;-64
2023/05/06 00:15:59;;;;;;;;;2.00;2.00;;;;;18.85;61.51;101063.44;2072367;28;46751;-64
2023/05/06 00:17:00;;;;;;;;;3.00;3.00;;;;;18.83;61.44;101062.66;2071187;28;46735;-64
2023/05/06 00:18:00;;;;;;;;;2.33;2.33;;;;;18.79;61.46;101057.41;2070813;28;45688;-62
2023/05/06 00:19:00;;;;;;;;;2.00;2.00;;;;;18.78;61.19;101057.50;2072094;28;44954;-65
2023/05/06 00:20:02;;;;;;;;;2.00;2.00;;;;;18.76;61.04;101068.31;2072161;28;46884;-63
2023/05/06 00:21:02;;;;;;;;;1.00;1.00;;;;;18.75;61.35;101068.41;2080350;28;45965;-64
2023/05/06 00:22:03;;;;;;;;;2.00;2.00;;;;;18.75;61.43;101063.03;2079673;28;46255;-63
2023/05/06 00:23:03;;;;;;;;;3.00;3.00;;;;;18.75;61.71;101060.34;2072040;28;46229;-64
2023/05/06 00:24:04;;;;;;;;;1.00;1.00;;;;;18.76;61.51;101059.38;2071571;28;46018;-63
2023/05/06 00:25:05;;;;;;;;;2.75;2.25;;;;;18.75;61.52;101060.34;2063129;28;46828;-65
2023/05/06 00:26:05;;;;;;;;;2.00;2.00;;;;;18.76;61.05;101064.78;2071420;28;46368;-64
2023/05/06 00:27:05;;;;;;;;;2.67;2.67;;;;;18.75;61.21;101050.44;2071358;28;45487;-63
2023/05/06 00:28:06;;;;;;;;;2.00;2.00;;;;;18.75;61.16;101060.34;2055257;28;46979;-63
2023/05/06 00:29:06;;;;;;;;;2.00;2.00;;;;;18.75;61.27;101057.66;2057577;28;45116;-63
2023/05/06 00:30:07;;;;;;;;;1.33;0.00;;;;;18.75;61.17;101061.22;2072333;28;46825;-63
2023/05/06 00:31:08;;;;;;;;;4.50;1.00;;;;;18.74;61.30;101056.78;2071947;28;46320;-64
2023/05/06 00:32:08;;;;;;;;;3.25;2.00;;;;;18.73;61.48;101059.56;2072217;28;46378;-64
2023/05/06 00:33:09;;;;;;;;;2.33;0.33;;;;;18.72;61.48;101055.13;2072332;28;46162;-63
2023/05/06 00:34:09;;;;;;;;;1.67;1.67;;;;;18.71;61.63;101059.63;2071286;28;46751;-64
2023/05/06 00:35:10;;;;;;;;;1.67;1.67;;;;;18.71;61.56;101053.38;2071580;28;46544;-65
2023/05/06 00:36:10;;;;;;;;;3.00;3.00;;;;;18.71;61.31;101053.38;2071832;28;46735;-63
2023/05/06 00:37:10;;;;;;;;;0.33;0.33;;;;;18.71;61.38;101048.00;2072381;28;46575;-62
2023/05/06 00:38:12;;;;;;;;;1.33;1.00;;;;;18.71;61.51;101045.31;2071504;28;46670;-64
2023/05/06 00:39:13;;;;;;;;;2.00;0.75;;;;;18.72;61.60;101045.25;2071750;28;46221;-64
2023/05/06 00:40:13;;;;;;;;;2.33;2.33;;;;;18.72;61.43;101052.44;2072149;28;46273;-63
2023/05/06 00:41:13;;;;;;;;;1.33;1.33;;;;;18.70;61.64;101047.13;2080267;28;45200;-63
2023/05/06 00:42:14;;;;;;;;;1.00;1.00;;;;;18.70;61.60;101046.28;2079529;28;46757;-64
2023/05/06 00:43:14;;;;;;;;;3.33;3.33;;;;;18.70;61.33;101041.75;2072205;28;46534;-64
2023/05/06 00:44:15;;;;;;;;;2.00;2.00;;;;;18.69;61.68;101048.09;2071654;28;46811;-64
2023/05/06 00:45:15;;;;;;;;;4.00;3.00;;;;;18.70;61.64;101046.28;2071538;28;46831;-63
2023/05/06 00:46:16;;;;;;;;;2.00;2.00;;;;;18.69;61.63;101042.72;2062770;28;46611;-64
2023/05/06 00:47:17;;;;;;;;;4.00;4.00;;;;;18.69;61.64;101041.84;2062902;28;46316;-66
2023/05/06 00:48:17;;;;;;;;;3.25;2.50;;;;;18.69;61.57;101048.09;2072334;28;46269;-64
2023/05/06 00:49:18;;;;;;;;;1.67;1.67;;;;;18.68;61.79;101045.47;2070946;28;46070;-62
2023/05/06 00:50:19;;;;;;;;;5.00;3.00;;;;;18.66;61.66;101037.47;2071327;28;46476;-63
2023/05/06 00:51:19;;;;;;;;;2.00;2.00;;;;;18.64;61.63;101042.06;2071682;28;45836;-62
2023/05/06 00:52:20;;;;;;;;;5.00;2.33;;;;;18.64;61.48;101036.69;2071359;28;46504;-63
2023/05/06 00:53:20;;;;;;;;;1.00;1.00;;;;;18.65;61.62;101037.53;2063278;28;46323;-63
2023/05/06 00:54:23;;;;;;;;;2.33;2.33;;;;;18.64;61.41;101041.19;2071125;28;46318;-64
2023/05/06 00:55:25;;;;;;;;;1.50;1.50;;;;;18.62;61.81;101040.38;2072161;28;46015;-63
2023/05/06 00:56:25;;;;;;;;;1.00;1.00;;;;;18.62;61.48;101037.66;2071808;28;46928;-62
2023/05/06 00:57:26;;;;;;;;;2.00;2.00;;;;;18.63;61.85;101042.09;2071879;28;46432;-63
2023/05/06 00:58:26;;;;;;;;;2.33;1.00;;;;;18.62;61.52;101037.66;2071798;28;46650;-64
2023/05/06 00:59:27;;;;;;;;;3.00;3.00;;;;;18.60;61.53;101037.75;2072046;28;46252;-64
2023/05/06 01:00:27;;;;;;;;;2.00;2.00;;;;;18.58;61.61;101038.78;2071711;28;46168;-64
2023/05/06 01:01:30;;;;;;;;;2.67;1.33;;;;;18.56;61.79;101044.25;2071952;28;45661;-63
2023/05/06 01:02:30;;;;;;;;;2.00;1.00;;;;;18.57;61.86;101045.09;2079398;28;46397;-65
2023/05/06 01:03:31;;;;;;;;;3.00;3.00;;;;;18.56;61.71;101038.88;2071337;28;46194;-64
2023/05/06 01:04:32;;;;;;;;;2.67;2.00;;;;;18.57;61.69;101042.41;2071505;28;46688;-64
2023/05/06 01:05:45;;;;;;;;;1.00;1.00;;;;;18.54;61.65;101035.34;2071644;28;46605;-63
2023/05/06 01:06:55;;;;;;;;;1.25;1.25;;;;;18.54;61.57;101038.91;2071890;28;46596;-64
2023/05/06 01:08:12;;;;;;;;;6.50;2.75;;;;;18.53;61.70;101042.53;2071442;28;46431;-64
2023/05/06 01:09:21;;;;;;;;;2.00;2.00;;;;;18.54;61.70;101036.22;2070821;28;46715;-63
2023/05/06 01:11:03;;;;;;;;;1.00;1.00;;;;;18.53;61.72;101039.84;2072173;28;46759;-64
2023/05/06 01:12:15;;;;;;;;;1.00;1.00;;;;;18.52;61.61;101038.13;2030419;29;46938;-63
2023/05/06 01:13:41;;;;;;;;;2.00;1.00;;;;;18.52;61.68;101037.25;2039815;28;46995;-63
2023/05/06 01:14:53;;;;;;;;;0.75;0.75;;;;;18.51;61.77;101035.50;2039849;28;46264;-65
2023/05/06 01:15:58;;;;;;;;;2.25;2.00;;;;;18.51;61.87;101041.75;2039969;28;46281;-65
2023/05/06 01:17:07;;;;;;;;;1.50;1.00;;;;;18.52;61.37;101038.13;2040087;28;46788;-64
2023/05/06 01:18:12;;;;;;;;;1.50;1.25;;;;;18.51;61.74;101036.38;2039676;28;46565;-63
2023/05/06 01:19:37;;;;;;;;;1.25;1.25;;;;;18.52;61.48;101035.44;2039903;28;46633;-64
2023/05/06 01:20:40;;;;;;;;;2.75;2.25;;;;;18.55;61.77;101037.13;2047989;28;46416;-63
2023/05/06 01:21:45;;;;;;;;;1.50;1.50;;;;;18.56;61.60;101033.50;2038185;28;46802;-63
2023/05/06 01:22:45;;;;;;;;;3.75;3.75;;;;;18.54;61.50;101038.91;2033045;28;46638;-65
2023/05/06 01:23:54;;;;;;;;;1.00;1.00;;;;;18.53;61.56;101039.84;2040216;28;45754;-63
2023/05/06 01:24:54;;;;;;;;;1.50;1.50;;;;;18.51;61.85;101032.81;2032081;29;46008;-63
2023/05/06 01:25:55;;;;;;;;;0.67;0.67;;;;;18.50;61.83;101037.31;2032206;29;46641;-63
2023/05/06 01:26:55;;;;;;;;;2.33;2.00;;;;;18.50;62.00;101031.09;2040215;28;45942;-63
2023/05/06 01:27:55;;;;;;;;;2.33;1.00;;;;;18.49;61.91;101030.22;2040048;28;46621;-63
2023/05/06 01:28:57;;;;;;;;;2.00;2.00;;;;;18.49;62.06;101030.22;2040856;28;46329;-64
2023/05/06 01:29:58;;;;;;;;;1.75;1.75;;;;;18.49;61.90;101026.66;2040449;28;46367;-61
2023/05/06 01:31:07;;;;;;;;;2.00;2.00;;;;;18.47;61.96;101024.06;2040268;28;46724;-64
2023/05/06 01:32:33;;;;;;;;;2.50;2.50;;;;;18.47;62.10;101028.56;2039372;28;46504;-64
2023/05/06 01:34:35;;;;;;;;;2.25;2.25;;;;;18.45;62.07;101030.47;2039980;28;46438;-63
2023/05/06 01:35:44;;;;;;;;;4.75;3.25;;;;;18.44;62.07;101032.28;2004036;29;46490;-64
2023/05/06 01:37:23;;;;;;;;;4.00;4.00;;;;;18.42;62.09;101034.16;1999731;29;46518;-64
2023/05/06 01:38:42;;;;;;;;;3.25;2.00;;;;;18.41;62.10;101024.34;1986457;29;46367;-63
2023/05/06 01:39:44;;;;;;;;;3.00;2.00;;;;;18.41;62.47;101031.53;1993529;29;46421;-64
2023/05/06 01:40:53;;;;;;;;;4.25;3.50;;;;;18.40;62.49;101027.09;1992952;29;46766;-64
2023/05/06 01:41:56;;;;;;;;;2.00;2.00;;;;;18.39;62.27;101020.84;1993161;29;46784;-63
2023/05/06 01:42:59;;;;;;;;;3.50;3.50;;;;;18.40;62.56;101032.47;1993228;29;46908;-64
2023/05/06 01:44:00;;;;;;;;;2.50;2.50;;;;;18.39;62.37;101020.84;2007588;29;46835;-63
2023/05/06 01:45:03;;;;;;;;;3.25;3.25;;;;;18.39;62.52;101028.94;2010847;29;46684;-63
2023/05/06 01:46:08;;;;;;;;;3.00;3.00;;;;;18.39;62.36;101023.56;2015805;29;46894;-65
2023/05/06 01:47:09;;;;;;;;;4.25;4.25;;;;;18.40;62.59;101024.41;2016334;29;46413;-64
2023/05/06 01:48:10;;;;;;;;;4.00;3.50;;;;;18.40;62.35;101022.59;2015965;29;46518;-63
2023/05/06 01:49:13;;;;;;;;;3.00;3.00;;;;;18.40;62.48;101027.97;2016228;29;46900;-63
2023/05/06 01:50:14;;;;;;;;;1.25;1.25;;;;;18.40;62.66;101019.91;2016065;29;46550;-63
2023/05/06 01:51:14;;;;;;;;;4.00;4.00;;;;;18.42;62.46;101023.44;2015608;29;46820;-63
2023/05/06 01:52:15;;;;;;;;;2.33;2.00;;;;;18.43;62.52;101017.09;2016265;29;46373;-63
2023/05/06 01:53:15;;;;;;;;;1.00;1.00;;;;;18.44;62.44;101016.16;2016031;29;45521;-66
2023/05/06 01:54:16;;;;;;;;;0.00;0.00;;;;;18.44;62.73;101016.16;2016408;29;46482;-64
2023/05/06 01:55:17;;;;;;;;;1.00;1.00;;;;;18.45;62.45;101017.88;2015963;29;46912;-64
2023/05/06 01:56:17;;;;;;;;;3.00;3.00;;;;;18.45;62.38;101022.41;2016459;29;46119;-63
2023/05/06 01:57:18;;;;;;;;;3.00;3.00;;;;;18.44;62.61;101023.34;2016263;29;46481;-63
2023/05/06 01:58:18;;;;;;;;;3.00;3.00;;;;;18.43;62.42;101017.09;2016155;29;46422;-64
2023/05/06 01:59:18;;;;;;;;;3.00;2.00;;;;;18.42;62.60;101012.66;2016039;29;46725;-63
2023/05/06 02:00:19;;;;;;;;;3.00;3.00;;;;;18.43;62.46;101014.41;2016246;29;46433;-63
2023/05/06 02:01:19;;;;;;;;;3.00;3.00;;;;;18.43;62.63;101011.72;2015848;29;46275;-64
2023/05/06 02:02:20;;;;;;;;;2.33;2.33;;;;;18.45;62.63;101022.41;2001579;29;46504;-63
2023/05/06 02:03:20;;;;;;;;;4.00;3.00;;;;;18.45;62.50;101011.66;2006277;29;46799;-63
2023/05/06 02:04:20;;;;;;;;;3.00;3.00;;;;;18.45;62.47;101008.97;2016103;29;46285;-63
2023/05/06 02:05:21;;;;;;;;;3.00;2.33;;;;;18.46;62.67;101011.56;2015673;29;46744;-63
2023/05/06 02:06:21;;;;;;;;;4.00;4.00;;;;;18.46;62.81;101006.19;2012481;29;46872;-62
2023/05/06 02:07:21;;;;;;;;;3.00;3.00;;;;;18.46;62.53;101008.88;2008159;29;46264;-63
2023/05/06 02:08:22;;;;;;;;;1.00;1.00;;;;;18.46;62.41;101006.19;2015617;29;45939;-63
2023/05/06 02:09:22;;;;;;;;;2.67;2.67;;;;;18.47;62.81;101016.00;2016043;29;46827;-64
2023/05/06 02:10:22;;;;;;;;;1.00;0.67;;;;;18.48;62.73;101016.88;2016217;29;46725;-63
2023/05/06 02:11:22;;;;;;;;;2.00;2.00;;;;;18.49;62.39;101015.91;2009029;29;46194;-63
2023/05/06 02:12:23;;;;;;;;;2.33;1.00;;;;;18.50;62.60;101007.75;2036738;28;46788;-63
2023/05/06 02:13:23;;;;;;;;;3.00;3.00;;;;;18.49;62.63;101011.41;2047657;28;46501;-64
2023/05/06 02:14:23;;;;;;;;;2.00;2.00;;;;;18.49;62.62;101005.16;2047612;28;46848;-63
2023/05/06 02:15:24;;;;;;;;;3.00;3.00;;;;;18.49;62.62;101005.16;2048230;28;46502;-63
2023/05/06 02:16:27;;;;;;;;;3.67;3.67;;;;;18.50;62.78;101014.97;2072372;28;46523;-68
2023/05/06 02:17:28;;;;;;;;;2.75;2.75;;;;;18.49;62.67;101007.84;2072744;28;46696;-65
2023/05/06 02:18:28;;;;;;;;;3.33;3.00;;;;;18.49;62.71;101006.03;2072647;28;46754;-63
2023/05/06 02:19:28;;;;;;;;;4.67;4.67;;;;;18.47;62.88;101012.44;2072791;28;46160;-64
2023/05/06 02:20:29;;;;;;;;;2.33;2.33;;;;;18.46;62.92;101013.38;2072566;28;45604;-63
2023/05/06 02:21:30;;;;;;;;;5.00;5.00;;;;;18.44;62.71;101018.84;2064010;28;46262;-63
2023/05/06 02:22:30;;;;;;;;;4.00;3.00;;;;;18.44;62.84;101021.53;2064527;28;46416;-63
2023/05/06 02:23:31;;;;;;;;;5.67;5.67;;;;;18.44;62.94;101016.16;2072884;28;46810;-63
2023/05/06 02:24:31;;;;;;;;;6.33;5.33;;;;;18.43;63.05;101024.28;2071734;28;46660;-62
2023/05/06 02:25:32;;;;;;;;;4.33;4.33;;;;;18.42;63.10;101014.47;2073057;28;47137;-63
2023/05/06 02:26:32;;;;;;;;;4.33;3.00;;;;;18.43;63.28;101024.28;2072981;28;46371;-64
2023/05/06 02:27:32;;;;;;;;;4.33;3.33;;;;;18.43;63.40;101021.59;2072383;28;46701;-64
2023/05/06 02:28:33;;;;;;;;;5.33;5.33;;;;;18.43;62.97;101018.91;2072385;28;45814;-64
2023/05/06 02:29:33;;;;;;;;;5.33;5.33;;;;;18.44;63.03;101009.91;2080482;28;46572;-64
2023/05/06 02:30:34;;;;;;;;;3.67;2.33;;;;;18.44;63.10;101017.97;2072098;28;46334;-64
2023/05/06 02:31:34;;;;;;;;;6.00;5.00;;;;;18.44;63.16;101020.66;2072710;28;46810;-65
2023/05/06 02:32:35;;;;;;;;;4.33;3.67;;;;;18.42;62.68;101018.06;2055592;28;46145;-64
2023/05/06 02:33:35;;;;;;;;;5.67;5.67;;;;;18.42;63.51;101011.78;2055428;28;45651;-64
2023/05/06 02:34:35;;;;;;;;;5.33;5.33;;;;;18.40;63.45;101014.53;2055342;28;46631;-63
2023/05/06 02:35:36;;;;;;;;;5.67;5.67;;;;;18.41;63.29;101013.59;2055277;28;46563;-63
2023/05/06 02:36:36;;;;;;;;;6.00;5.00;;;;;18.41;63.33;101013.59;2055752;28;46419;-64
2023/05/06 02:37:37;;;;;;;;;5.33;5.00;;;;;18.42;63.47;101018.06;2056233;28;46220;-63
2023/05/06 02:38:37;;;;;;;;;5.00;5.00;;;;;18.43;63.23;101013.53;2055652;28;45711;-64
2023/05/06 02:39:37;;;;;;;;;4.00;3.33;;;;;18.42;63.11;101007.31;2056658;28;46612;-63
2023/05/06 02:40:38;;;;;;;;;4.33;4.33;;;;;18.43;63.27;101013.53;2056173;28;45517;-64
2023/05/06 02:41:38;;;;;;;;;3.67;3.67;;;;;18.41;63.54;101005.53;2056307;28;46162;-62
2023/05/06 02:42:38;;;;;;;;;4.33;4.33;;;;;18.42;63.41;101012.66;2056622;28;46222;-63
2023/05/06 02:43:39;;;;;;;;;3.00;3.00;;;;;18.42;63.15;101010.00;2056136;28;45764;-63
2023/05/06 02:44:39;;;;;;;;;4.33;4.33;;;;;18.40;63.53;101010.97;2047965;28;45912;-64
2023/05/06 02:45:39;;;;;;;;;5.33;4.00;;;;;18.41;63.53;101012.72;2047488;28;46616;-63
2023/05/06 02:46:40;;;;;;;;;4.00;4.00;;;;;18.41;63.41;101020.78;2055057;28;46656;-64
2023/05/06 02:47:40;;;;;;;;;3.00;3.00;;;;;18.41;63.41;101018.09;2055390;28;46435;-62
2023/05/06 02:48:40;;;;;;;;;3.67;3.67;;;;;18.41;63.57;101016.28;2055209;28;46668;-63
2023/05/06 02:49:41;;;;;;;;;3.00;3.00;;;;;18.41;63.52;101023.47;2055744;28;46484;-64
2023/05/06 02:50:41;;;;;;;;;5.00;3.00;;;;;18.40;63.37;101014.53;2055108;28;46197;-63
2023/05/06 02:51:41;;;;;;;;;4.00;4.00;;;;;18.40;63.50;101017.22;2055198;28;46869;-64
2023/05/06 02:52:42;;;;;;;;;4.33;3.00;;;;;18.41;63.38;101016.28;2047578;28;46446;-64
2023/05/06 02:53:42;;;;;;;;;3.00;3.00;;;;;18.40;63.49;101016.34;2047007;28;46116;-63
2023/05/06 02:54:42;;;;;;;;;6.00;6.00;;;;;18.39;63.61;101011.94;2055714;28;46834;-63
2023/05/06 02:55:43;;;;;;;;;3.67;3.00;;;;;18.39;63.32;101009.25;2055199;28;46694;-63
2023/05/06 02:56:45;;;;;;;;;3.67;3.67;;;;;18.39;63.78;101012.81;2055430;28;45684;-63
2023/05/06 02:57:45;;;;;;;;;4.00;4.00;;;;;18.39;63.48;101011.94;2055183;28;46423;-63
2023/05/06 02:58:45;;;;;;;;;2.67;2.00;;;;;18.39;63.66;101012.81;2055295;28;46573;-64
2023/05/06 02:59:45;;;;;;;;;5.00;5.00;;;;;18.40;63.44;101008.28;2054988;28;46209;-63
2023/05/06 03:00:46;;;;;;;;;3.33;3.00;;;;;18.40;63.51;101005.59;2055465;28;46835;-62
2023/05/06 03:01:46;;;;;;;;;5.00;5.00;;;;;18.41;63.54;101004.66;2054348;28;45013;-62
2023/05/06 03:02:47;;;;;;;;;3.00;3.00;;;;;18.40;63.68;101011.84;2055523;28;46804;-63
2023/05/06 03:03:47;;;;;;;;;5.33;5.33;;;;;18.38;63.38;100996.75;2055263;28;46143;-64
2023/05/06 03:04:47;;;;;;;;;4.00;4.00;;;;;18.37;63.54;101000.41;2062741;28;45319;-62
2023/05/06 03:05:48;;;;;;;;;3.33;3.33;;;;;18.37;63.52;101000.41;2063143;28;46015;-63
2023/05/06 03:06:48;;;;;;;;;3.67;3.00;;;;;18.38;63.49;100999.44;2072106;28;45837;-63
2023/05/06 03:07:48;;;;;;;;;3.33;3.00;;;;;18.39;63.42;101004.75;2071602;28;46520;-65
2023/05/06 03:08:49;;;;;;;;;4.67;4.67;;;;;18.40;63.57;101003.78;2072667;28;46810;-66
2023/05/06 03:09:49;;;;;;;;;5.00;5.00;;;;;18.39;63.95;100991.31;2072348;28;46724;-63
2023/05/06 03:10:50;;;;;;;;;4.00;3.00;;;;;18.38;63.28;101005.69;2072313;28;46604;-63
2023/05/06 03:11:50;;;;;;;;;3.33;3.33;;;;;18.39;63.84;100998.50;2071761;28;46647;-61
2023/05/06 03:12:50;;;;;;;;;3.00;3.00;;;;;18.37;63.41;101001.25;2071963;28;46411;-63
2023/05/06 03:13:50;;;;;;;;;3.00;3.00;;;;;18.38;63.39;100996.75;2064272;28;46513;-61
2023/05/06 03:14:51;;;;;;;;;3.33;3.33;;;;;18.38;63.36;100999.44;2070925;28;46548;-63
2023/05/06 03:15:55;;;;;;;;;4.67;4.00;;;;;18.38;63.40;100994.94;2072325;28;46779;-63
2023/05/06 03:16:55;;;;;;;;;4.00;4.00;;;;;18.37;63.40;100995.88;2072510;28;46948;-63
2023/05/06 03:17:56;;;;;;;;;4.00;4.00;;;;;18.38;63.62;100996.75;2072068;28;45773;-63
2023/05/06 03:18:56;;;;;;;;;3.00;3.00;;;;;18.37;63.56;100995.03;2071896;28;45563;-64
2023/05/06 03:19:56;;;;;;;;;3.00;3.00;;;;;18.38;63.67;100997.63;2063993;28;48444;-64
2023/05/06 03:20:57;;;;;;;;;2.00;2.00;;;;;18.39;63.50;100988.63;2071685;28;46757;-61
2023/05/06 03:21:57;;;;;;;;;4.67;4.67;;;;;18.39;63.71;101002.06;2072554;28;45337;-64
2023/05/06 03:22:57;;;;;;;;;5.33;4.33;;;;;18.38;63.76;100997.63;2071576;28;46619;-62
2023/05/06 03:23:58;;;;;;;;;3.00;2.67;;;;;18.37;63.46;100995.03;2072022;28;46598;-63
2023/05/06 03:24:58;;;;;;;;;5.33;5.33;;;;;18.36;63.55;100994.16;2079802;28;46711;-63
2023/05/06 03:25:58;;;;;;;;;4.00;4.00;;;;;18.34;63.40;100990.69;2079876;28;46929;-65
2023/05/06 03:26:58;;;;;;;;;5.67;5.67;;;;;18.34;63.58;100989.81;2072397;28;46260;-63
2023/05/06 03:27:59;;;;;;;;;2.67;2.67;;;;;18.32;63.51;100991.72;2072490;28;46414;-62
2023/05/06 03:28:59;;;;;;;;;3.67;3.00;;;;;18.31;63.78;100995.34;2079465;28;47516;-63
2023/05/06 03:29:59;;;;;;;;;4.67;3.00;;;;;18.29;63.81;100992.69;2080310;28;45793;-62
2023/05/06 03:31:00;;;;;;;;;3.00;3.00;;;;;18.30;63.92;100996.28;2071151;28;46015;-64
2023/05/06 03:32:04;;;;;;;;;7.67;6.00;;;;;18.28;64.13;100990.09;2071651;28;46440;-63
2023/05/06 03:33:04;;;;;;;;;4.75;4.75;;;;;18.27;63.97;100989.22;2071684;28;46958;-64
2023/05/06 03:34:05;;;;;;;;;3.67;3.67;;;;;18.26;63.75;100997.38;2072029;28;45656;-64
2023/05/06 03:35:07;;;;;;;;;5.00;4.00;;;;;18.26;63.90;100998.22;2072228;28;46369;-63
2023/05/06 03:36:07;;;;;;;;;3.75;3.75;;;;;18.26;64.01;100992.00;2072016;28;46725;-64
2023/05/06 03:37:08;;;;;;;;;4.33;4.00;;;;;18.26;64.06;100994.69;2070667;28;46971;-63
2023/05/06 03:38:09;;;;;;;;;3.25;3.25;;;;;18.26;63.83;100990.16;2071320;28;46927;-63
2023/05/06 03:39:09;;;;;;;;;6.33;4.00;;;;;18.26;63.92;100992.84;2072104;28;46873;-63
2023/05/06 03:40:10;;;;;;;;;4.67;4.67;;;;;18.25;64.05;100991.13;2071693;28;46219;-64
2023/05/06 03:41:10;;;;;;;;;5.00;5.00;;;;;18.25;63.80;100993.81;2071736;28;46442;-63
2023/05/06 03:42:10;;;;;;;;;4.00;4.00;;;;;18.24;64.18;100989.38;2072216;28;46591;-64
2023/05/06 03:43:11;;;;;;;;;6.00;6.00;;;;;18.23;63.73;100988.50;2072186;28;45578;-63
2023/05/06 03:44:11;;;;;;;;;6.33;5.67;;;;;18.23;64.11;100990.34;2063631;28;47025;-62
2023/05/06 03:45:11;;;;;;;;;6.00;4.00;;;;;18.21;64.08;100985.03;2071458;28;46711;-63
2023/05/06 03:46:12;;;;;;;;;4.67;4.67;;;;;18.22;63.69;100988.59;2072369;28;46645;-63
2023/05/06 03:47:12;;;;;;;;;5.33;5.00;;;;;18.21;63.85;100995.78;2072216;28;46243;-63
2023/05/06 03:48:12;;;;;;;;;4.00;4.00;;;;;18.22;64.01;100993.97;2072013;28;46103;-62
2023/05/06 03:49:13;;;;;;;;;4.00;4.00;;;;;18.23;63.97;100991.19;2072126;28;46286;-64
2023/05/06 03:50:13;;;;;;;;;4.00;4.00;;;;;18.24;64.02;100990.25;2071340;28;46279;-63
2023/05/06 03:51:13;;;;;;;;;4.67;4.67;;;;;18.25;64.13;100988.44;2071626;28;45794;-64
2023/05/06 03:52:14;;;;;;;;;9.00;6.00;;;;;18.24;64.12;100987.56;2079630;28;45486;-63
2023/05/06 03:53:14;;;;;;;;;7.00;7.00;;;;;18.25;64.12;100988.44;2071829;28;46753;-62
2023/05/06 03:54:15;;;;;;;;;6.00;5.00;;;;;18.23;63.96;100987.63;2072106;28;46455;-64
2023/05/06 03:55:15;;;;;;;;;5.33;5.33;;;;;18.23;64.03;100982.28;2072516;28;46525;-63
2023/05/06 03:56:17;;;;;;;;;2.33;2.00;;;;;18.22;64.07;100986.78;2063602;28;45531;-64
2023/05/06 03:57:17;;;;;;;;;4.50;4.00;;;;;18.23;63.98;100993.88;2055608;28;45857;-64
2023/05/06 03:58:17;;;;;;;;;3.00;3.00;;;;;18.22;63.97;100988.59;2063921;28;46532;-63
2023/05/06 03:59:17;;;;;;;;;5.33;5.33;;;;;18.21;64.38;100986.84;2072581;28;46523;-64
2023/05/06 04:00:19;;;;;;;;;6.67;6.00;;;;;18.20;64.00;100988.66;2072392;28;46248;-64
2023/05/06 04:01:19;;;;;;;;;5.00;4.00;;;;;18.20;64.16;100990.50;2072211;28;46634;-63
2023/05/06 04:02:20;;;;;;;;;4.67;4.00;;;;;18.20;64.44;100990.50;2071614;28;46313;-63
2023/05/06 04:03:20;;;;;;;;;5.67;5.33;;;;;18.19;64.06;100992.31;2071718;28;46574;-62
2023/05/06 04:04:20;;;;;;;;;4.00;4.00;;;;;18.21;64.17;100998.47;2054168;28;46572;-63
2023/05/06 04:05:21;;;;;;;;;5.00;5.00;;;;;18.21;64.23;100993.09;2047556;28;46527;-63
2023/05/06 04:06:21;;;;;;;;;4.00;4.00;;;;;18.22;64.48;100993.97;2070928;28;46376;-63
2023/05/06 04:07:21;;;;;;;;;4.33;4.33;;;;;18.24;64.17;100997.44;2063499;28;46341;-63
2023/05/06 04:08:22;;;;;;;;;3.67;3.67;;;;;18.23;64.25;100996.56;2071161;28;46338;-63
2023/05/06 04:09:22;;;;;;;;;6.33;6.33;;;;;18.24;64.21;101000.13;2066357;28;49177;-64
2023/05/06 04:10:22;;;;;;;;;5.67;5.67;;;;;18.23;64.10;100993.00;2072430;28;46584;-63
2023/05/06 04:11:23;;;;;;;;;4.33;4.00;;;;;18.23;64.15;100993.00;2072184;28;46184;-64
2023/05/06 04:12:23;;;;;;;;;4.00;4.00;;;;;18.21;64.19;100987.72;2072577;28;46520;-63
2023/05/06 04:13:24;;;;;;;;;3.33;3.33;;;;;18.23;64.16;100993.00;2071399;28;45463;-63
2023/05/06 04:14:24;;;;;;;;;5.33;5.33;;;;;18.23;64.34;101001.06;2071162;28;46463;-63
2023/05/06 04:15:24;;;;;;;;;4.33;4.33;;;;;18.21;64.09;100987.72;2071839;28;46738;-64
2023/05/06 04:16:25;;;;;;;;;4.67;4.67;;;;;18.21;64.12;100989.53;2071353;28;46180;-64
2023/05/06 04:17:25;;;;;;;;;5.00;5.00;;;;;18.22;64.33;100985.91;2062894;28;46640;-63
2023/05/06 04:18:26;;;;;;;;;4.33;4.33;;;;;18.22;64.39;100983.22;2063032;28;46296;-64
2023/05/06 04:19:26;;;;;;;;;9.00;6.00;;;;;18.23;64.14;100987.63;2063074;28;46355;-64
2023/05/06 04:20:27;;;;;;;;;4.00;3.00;;;;;18.23;64.22;100985.81;2071460;28;45590;-64
2023/05/06 04:21:28;;;;;;;;;4.00;3.00;;;;;18.22;64.17;100992.16;2070819;28;46413;-64
2023/05/06 04:22:28;;;;;;;;;5.25;5.25;;;;;18.24;64.26;100987.56;2071194;28;46415;-62
2023/05/06 04:23:29;;;;;;;;;5.00;4.00;;;;;18.23;64.33;100980.44;2071041;28;47948;-62
2023/05/06 04:24:30;;;;;;;;;6.33;6.33;;;;;18.26;64.30;100983.94;2070615;28;46555;-62
2023/05/06 04:25:30;;;;;;;;;4.00;4.00;;;;;18.27;64.56;100977.59;2071134;28;46218;-64
2023/05/06 04:26:31;;;;;;;;;4.67;4.00;;;;;18.26;64.40;100979.44;2071110;28;46300;-61
2023/05/06 04:27:31;;;;;;;;;3.67;3.67;;;;;18.26;64.40;100981.25;2049075;28;46534;-65
2023/05/06 04:28:32;;;;;;;;;5.67;4.67;;;;;18.27;64.02;100985.66;2050130;28;46070;-64
2023/05/06 04:29:32;;;;;;;;;5.00;5.00;;;;;18.27;64.23;100978.47;2063073;28;47000;-64
2023/05/06 04:30:32;;;;;;;;;5.33;5.33;;;;;18.29;64.13;100975.72;2058992;28;46755;-64
2023/05/06 04:31:33;;;;;;;;;5.33;5.33;;;;;18.31;64.35;100974.72;2054578;28;46691;-64
2023/05/06 04:32:35;;;;;;;;;1.00;1.00;;;;;18.32;64.07;100972.91;2063321;28;46681;-64
2023/05/06 04:33:35;;;;;;;;;4.00;4.00;;;;;18.32;64.07;100968.38;2062915;28;46787;-64
2023/05/06 04:34:36;;;;;;;;;3.00;3.00;;;;;18.33;64.28;100975.50;2062625;28;46436;-64
2023/05/06 04:35:36;;;;;;;;;4.33;4.33;;;;;18.33;63.81;100969.25;2070698;28;46291;-63
2023/05/06 04:36:37;;;;;;;;;4.67;4.00;;;;;18.35;64.25;100972.75;2071082;28;46235;-63
2023/05/06 04:37:37;;;;;;;;;4.67;4.67;;;;;18.35;64.02;100972.75;2062777;28;46879;-64
2023/05/06 04:38:38;;;;;;;;;5.00;5.00;;;;;18.33;64.12;100985.38;2054539;28;46409;-63
2023/05/06 04:39:38;;;;;;;;;5.00;5.00;;;;;18.32;64.16;100981.81;2054593;28;46261;-65
2023/05/06 04:40:39;;;;;;;;;5.00;5.00;;;;;18.32;64.40;100983.63;2062567;28;46244;-65
2023/05/06 04:41:39;;;;;;;;;3.75;3.75;;;;;18.32;64.22;100978.28;2070782;28;46879;-64
2023/05/06 04:42:40;;;;;;;;;4.67;3.67;;;;;18.32;63.92;100981.81;2071417;28;46729;-64
2023/05/06 04:43:41;;;;;;;;;5.00;4.00;;;;;18.34;64.17;100987.13;2070762;28;46397;-62
2023/05/06 04:44:42;;;;;;;;;2.00;2.00;;;;;18.34;63.90;100969.19;2062718;28;46241;-64
2023/05/06 04:45:48;;;;;;;;;5.00;4.75;;;;;18.35;64.23;100967.38;2055178;28;46914;-64
2023/05/06 04:46:48;;;;;;;;;4.00;4.00;;;;;18.36;64.18;100972.66;2063135;28;47192;-65
2023/05/06 04:47:48;;;;;;;;;4.33;4.00;;;;;18.38;63.96;100970.75;2071788;28;46564;-63